Time;durP1;ratioP1;P1;durP2;ratioP2;P2;SDS_P1;SDS_P2;PMS_P1;PMS_P2;Temp;Humidity;BMP_temperature;BMP_pressure;BME280_temperature;BME280_humidity;BME280_pressure;Samples;Min_cycle;Max_cycle;Signal;HPM_P1;HPM_P2
2022/04/26 04:11:14;;;;;;;36.20;23.10;;;;;;;9.03;69.56;98574.42;105787;1279;97975;-71
2022/04/26 04:13:42;;;;;;;39.90;24.20;;;;;;;9.04;69.41;98577.20;105618;1284;111457;-72
2022/04/26 04:16:10;;;;;;;40.20;25.10;;;;;;;9.04;69.51;98576.98;105640;1284;99090;-68
2022/04/26 04:21:27;;;;;;;45.30;28.10;;;;;;;9.07;69.46;98582.05;105641;1283;97870;-67
2022/04/26 04:23:55;;;;;;;39.70;24.60;;;;;;;9.07;69.54;98587.17;105669;1283;95204;-68
2022/04/26 04:26:25;;;;;;;41.50;25.60;;;;;;;9.07;69.51;98589.47;105594;1283;112012;-68
2022/04/26 04:28:53;;;;;;;41.10;26.40;;;;;;;9.08;69.50;98594.56;105475;1284;95949;-68
2022/04/26 04:31:23;;;;;;;39.60;25.20;;;;;;;9.09;69.65;98598.01;105496;1284;109519;-68
2022/04/26 04:33:52;;;;;;;42.40;27.00;;;;;;;9.10;69.56;98602.91;105572;1282;97940;-70
2022/04/26 04:36:22;;;;;;;44.20;28.10;;;;;;;9.11;69.57;98602.70;105594;1284;96433;-69
2022/04/26 04:38:52;;;;;;;43.60;27.10;;;;;;;9.12;69.55;98606.32;105634;1283;112108;-68
2022/04/26 04:41:21;;;;;;;43.90;26.70;;;;;;;9.11;69.56;98608.48;105626;1284;97992;-67
2022/04/26 04:43:49;;;;;;;43.10;26.30;;;;;;;9.08;69.59;98610.43;105563;1283;108495;-68
2022/04/26 04:46:18;;;;;;;43.20;29.10;;;;;;;9.08;69.68;98613.29;105572;1284;97103;-69
2022/04/26 04:48:47;;;;;;;46.20;29.30;;;;;;;9.07;69.61;98615.63;105545;1284;95294;-70
2022/04/26 04:51:16;;;;;;;48.60;29.90;;;;;;;9.06;69.65;98619.79;105583;1283;112455;-69
2022/04/26 04:53:45;;;;;;;44.70;28.10;;;;;;;9.06;69.77;98621.80;105694;1284;97964;-69
2022/04/26 04:56:14;;;;;;;43.60;29.00;;;;;;;9.06;69.64;98627.73;105479;1284;108440;-68
2022/04/26 04:58:42;;;;;;;48.50;30.20;;;;;;;9.06;69.70;98627.08;105566;1283;96440;-68
2022/04/26 05:01:12;;;;;;;44.50;28.10;;;;;;;9.06;69.71;98628.10;105501;1284;97963;-68
2022/04/26 05:03:40;;;;;;;49.20;31.50;;;;;;;9.06;69.73;98627.58;105603;1284;112037;-68
2022/04/26 05:06:16;;;;;;;44.30;28.60;;;;;;;9.05;69.78;98632.45;105579;1283;97966;-68
2022/04/26 05:08:46;;;;;;;46.40;30.60;;;;;;;9.05;69.82;98635.13;105647;1282;107762;-68
2022/04/26 05:11:16;;;;;;;48.30;30.20;;;;;;;9.06;69.94;98638.75;105608;1283;98617;-69
2022/04/26 05:13:44;;;;;;;46.40;30.50;;;;;;;9.06;69.94;98637.33;105689;1284;98002;-66
2022/04/26 05:16:12;;;;;;;42.90;29.00;;;;;;;9.06;69.83;98641.21;105701;1283;110136;-67
2022/04/26 05:18:42;;;;;;;45.40;28.90;;;;;;;9.05;69.83;98641.11;105740;1283;97883;-66
2022/04/26 05:21:13;;;;;;;41.80;27.30;;;;;;;9.04;69.90;98646.31;105713;1283;108400;-65
2022/04/26 05:26:31;;;;;;;40.70;26.20;;;;;;;8.98;69.98;98651.48;105648;1283;95258;-66
2022/04/26 05:29:00;;;;;;;40.00;24.20;;;;;;;8.96;69.92;98653.65;105683;1283;112048;-66
2022/04/26 05:31:30;;;;;;;38.70;25.40;;;;;;;8.93;70.01;98663.04;105712;1283;97842;-69
2022/04/26 05:34:00;;;;;;;37.50;23.80;;;;;;;8.90;69.89;98665.38;105635;1284;107397;-65
2022/04/26 05:36:35;;;;;;;37.50;24.30;;;;;;;8.89;70.08;98666.64;105709;1283;97974;-64
2022/04/26 05:39:03;;;;;;;37.80;23.40;;;;;;;8.89;70.10;98669.65;105720;1283;97896;-65
2022/04/26 05:41:33;;;;;;;35.00;21.40;;;;;;;8.89;70.11;98673.77;105609;1283;111837;-65
2022/04/26 05:44:01;;;;;;;36.10;21.70;;;;;;;8.89;69.99;98672.17;105509;1283;97817;-65
2022/04/26 05:46:29;;;;;;;34.60;21.10;;;;;;;8.90;70.09;98680.97;105479;1282;108160;-66
2022/04/26 05:48:59;;;;;;;37.40;22.90;;;;;;;8.90;70.08;98682.50;105526;1283;98571;-67
2022/04/26 05:51:27;;;;;;;34.40;20.70;;;;;;;8.87;70.11;98685.59;105655;1283;97877;-65
2022/04/26 05:53:55;;;;;;;35.20;21.70;;;;;;;8.84;70.23;98687.91;105653;1283;111929;-66
2022/04/26 05:56:23;;;;;;;35.50;20.80;;;;;;;8.85;70.28;98687.15;105551;1283;97775;-66
2022/04/26 05:58:51;;;;;;;36.40;21.20;;;;;;;8.87;70.34;98689.67;105349;1282;108606;-66
2022/04/26 06:01:19;;;;;;;32.80;19.30;;;;;;;8.88;70.37;98690.48;105294;1282;98017;-66
2022/04/26 06:03:47;;;;;;;34.00;19.30;;;;;;;8.89;70.35;98690.05;105439;1283;97986;-65
2022/04/26 06:06:15;;;;;;;32.40;19.60;;;;;;;8.88;70.28;98695.20;105757;1282;111394;-68
2022/04/26 06:08:43;;;;;;;32.30;18.80;;;;;;;8.87;70.10;98694.45;105388;1283;97776;-66
2022/04/26 06:11:16;;;;;;;32.10;19.40;;;;;;;8.84;70.30;98699.77;105415;1283;107862;-66
2022/04/26 06:13:43;;;;;;;34.60;20.60;;;;;;;8.84;70.35;98702.98;105351;1284;97903;-68
2022/04/26 06:16:11;;;;;;;35.80;20.70;;;;;;;8.83;70.35;98707.21;105549;1282;97871;-69
2022/04/26 06:18:40;;;;;;;35.80;20.50;;;;;;;8.82;70.16;98710.15;105492;1284;111043;-68
2022/04/26 06:21:08;;;;;;;34.70;21.30;;;;;;;8.77;70.24;98706.77;105486;1282;97603;-69
2022/04/26 06:23:36;;;;;;;32.70;19.20;;;;;;;8.73;70.33;98708.09;105589;1283;108262;-68
2022/04/26 06:26:04;;;;;;;36.60;20.40;;;;;;;8.73;70.44;98712.20;105635;1283;97942;-69
2022/04/26 06:28:32;;;;;;;35.30;21.00;;;;;;;8.73;70.46;98715.38;105633;1283;97956;-69
2022/04/26 06:31:00;;;;;;;33.70;21.00;;;;;;;8.74;70.41;98720.25;105628;1283;111515;-69
2022/04/26 06:33:29;;;;;;;34.40;20.10;;;;;;;8.74;70.52;98719.35;105596;1283;95217;-67
2022/04/26 06:35:56;;;;;;;37.10;23.20;;;;;;;8.75;70.58;98723.18;105685;1283;108389;-68
2022/04/26 06:38:25;;;;;;;35.10;21.70;;;;;;;8.76;70.47;98725.06;105383;1284;98076;-69
2022/04/26 06:40:53;;;;;;;35.90;21.90;;;;;;;8.75;70.43;98727.80;105562;1283;95181;-67
2022/04/26 06:43:21;;;;;;;36.00;22.40;;;;;;;8.73;70.50;98727.02;105433;1284;112915;-67
2022/04/26 06:45:49;;;;;;;36.80;23.60;;;;;;;8.72;70.57;98731.33;105647;1283;95229;-68
2022/04/26 06:48:18;;;;;;;34.20;21.10;;;;;;;8.72;70.68;98733.61;105654;1283;107657;-71
2022/04/26 06:50:48;;;;;;;35.00;21.00;;;;;;;8.74;70.80;98739.17;105688;1283;97969;-68
2022/04/26 06:53:16;;;;;;;36.00;22.90;;;;;;;8.74;70.69;98740.77;105746;1283;97957;-67
2022/04/26 06:55:44;;;;;;;36.30;22.60;;;;;;;8.74;70.76;98740.04;105665;1283;112034;-69
2022/04/26 06:58:12;;;;;;;35.40;21.70;;;;;;;8.74;70.77;98744.34;105627;1283;98339;-68
2022/04/26 07:00:40;;;;;;;33.60;20.90;;;;;;;8.71;70.67;98744.33;105648;1282;108299;-67
2022/04/26 07:03:08;;;;;;;36.50;21.70;;;;;;;8.67;70.60;98751.52;105610;1282;97897;-69
2022/04/26 07:05:37;;;;;;;34.30;21.10;;;;;;;8.64;70.47;98752.75;105689;1283;97858;-67
2022/04/26 07:08:05;;;;;;;32.30;20.50;;;;;;;8.63;70.72;98751.77;105664;1282;112105;-68
2022/04/26 07:10:33;;;;;;;34.50;21.90;;;;;;;8.63;70.82;98752.42;105719;1283;97935;-68
2022/04/26 07:13:01;;;;;;;35.70;21.50;;;;;;;8.63;70.54;98753.70;105629;1283;108516;-67
2022/04/26 07:15:29;;;;;;;33.90;19.60;;;;;;;8.64;70.77;98760.54;105646;1283;97899;-68
2022/04/26 07:17:57;;;;;;;30.90;18.80;;;;;;;8.68;71.04;98763.05;105706;1283;97918;-66
2022/04/26 07:20:28;;;;;;;30.70;18.80;;;;;;;8.73;70.91;98768.41;105732;1283;112317;-68
2022/04/26 07:22:57;;;;;;;30.80;18.80;;;;;;;8.76;70.96;98773.13;105659;1283;97902;-70
2022/04/26 07:25:25;;;;;;;32.90;20.00;;;;;;;8.78;70.79;98773.15;105704;1283;107836;-68
2022/04/26 07:27:53;;;;;;;34.40;20.70;;;;;;;8.77;70.85;98775.38;105459;1282;95306;-68
2022/04/26 07:30:21;;;;;;;35.00;19.80;;;;;;;8.77;70.83;98777.30;105653;1283;97938;-71
2022/04/26 07:35:35;;;;;;;32.80;19.80;;;;;;;8.80;70.97;98784.54;105681;1283;98018;-67
2022/04/26 07:38:07;;;;;;;34.20;21.30;;;;;;;8.78;70.93;98786.92;105698;1283;108407;-67
2022/04/26 07:40:35;;;;;;;33.00;20.00;;;;;;;8.78;70.96;98794.76;105725;1283;97887;-67
2022/04/26 07:43:04;;;;;;;33.20;19.20;;;;;;;8.79;71.11;98794.13;105687;1283;97871;-68
2022/04/26 07:45:39;;;;;;;35.90;22.10;;;;;;;8.84;71.17;98800.19;105716;1283;112128;-69
2022/04/26 07:48:08;;;;;;;36.60;21.90;;;;;;;8.87;71.30;98802.99;105594;1282;96496;-66
2022/04/26 07:50:36;;;;;;;39.20;23.00;;;;;;;8.90;71.23;98803.96;105657;1283;107863;-66
2022/04/26 07:53:05;;;;;;;32.50;20.60;;;;;;;8.94;71.20;98809.58;105659;1283;98098;-67
2022/04/26 07:55:36;;;;;;;35.60;22.10;;;;;;;8.97;71.24;98812.92;105609;1282;98559;-70
2022/04/26 07:58:05;;;;;;;36.00;21.80;;;;;;;8.95;71.11;98814.45;105531;1282;112016;-69
2022/04/26 08:00:33;;;;;;;34.10;21.20;;;;;;;8.94;71.15;98818.91;105582;1282;97872;-68
2022/04/26 08:03:02;;;;;;;32.10;19.90;;;;;;;8.95;71.24;98827.17;105435;1282;108443;-68
2022/04/26 08:05:31;;;;;;;35.60;22.10;;;;;;;8.94;71.06;98829.90;105458;1282;97905;-66
2022/04/26 08:07:59;;;;;;;37.30;21.30;;;;;;;8.93;71.16;98831.02;105431;1283;97787;-68
2022/04/26 08:10:27;;;;;;;35.20;20.10;;;;;;;8.93;71.25;98838.60;105742;1283;112183;-67
2022/04/26 08:12:55;;;;;;;34.50;20.40;;;;;;;8.89;71.09;98838.54;105703;1283;97920;-68
2022/04/26 08:15:23;;;;;;;36.00;21.60;;;;;;;8.84;71.07;98841.77;105686;1282;108400;-66
2022/04/26 08:17:50;;;;;;;37.70;22.30;;;;;;;8.79;71.12;98843.61;105675;1283;97909;-67
2022/04/26 08:20:18;;;;;;;41.20;24.10;;;;;;;8.76;71.07;98844.22;105683;1283;98002;-68
2022/04/26 08:22:46;;;;;;;43.20;25.70;;;;;;;8.75;71.19;98850.30;105734;1283;112046;-67
2022/04/26 08:28:01;;;;;;;38.90;23.60;;;;;;;8.74;71.30;98857.05;105526;1284;108400;-68
2022/04/26 08:30:29;;;;;;;36.70;22.50;;;;;;;8.76;71.23;98859.80;105682;1283;98486;-68
2022/04/26 08:32:57;;;;;;;43.00;25.80;;;;;;;8.75;71.35;98857.67;105720;1282;97920;-68
2022/04/26 08:35:29;;;;;;;41.70;25.40;;;;;;;8.81;71.27;98858.36;105686;1282;112113;-67
2022/04/26 08:38:17;;;;;;;36.90;22.70;;;;;;;8.89;71.44;98860.45;105685;1283;96504;-67
2022/04/26 08:40:46;;;;;;;37.00;24.20;;;;;;;8.97;71.38;98860.14;105740;1282;107799;-68
2022/04/26 08:43:14;;;;;;;40.20;24.00;;;;;;;9.05;71.29;98859.67;105666;1283;98667;-70
2022/04/26 08:45:46;;;;;;;37.50;23.30;;;;;;;9.15;71.26;98859.94;105743;1283;96590;-66
2022/04/26 08:51:02;;;;;;;39.30;25.40;;;;;;;9.25;71.33;98862.57;105713;1283;97857;-67
2022/04/26 08:53:35;;;;;;;42.70;26.40;;;;;;;9.28;71.38;98867.00;105672;1283;107528;-68
2022/04/26 08:56:06;;;;;;;46.50;27.40;;;;;;;9.32;71.37;98865.29;105693;1282;97906;-69
2022/04/26 08:58:35;;;;;;;39.50;24.80;;;;;;;9.35;71.35;98867.01;105752;1282;97890;-67
2022/04/26 09:01:06;;;;;;;42.50;27.20;;;;;;;9.37;71.29;98866.69;105739;1283;112516;-69
2022/04/26 09:03:55;;;;;;;39.70;26.30;;;;;;;9.37;71.23;98865.43;105709;1283;97890;-70
2022/04/26 09:06:43;;;;;;;38.30;25.40;;;;;;;9.40;71.32;98862.77;105460;1282;107766;-68
2022/04/26 09:09:15;;;;;;;38.80;24.40;;;;;;;9.51;71.23;98858.64;105531;1283;98563;-69
2022/04/26 09:11:45;;;;;;;38.40;25.10;;;;;;;9.68;71.14;98858.34;105695;1283;97101;-69
2022/04/26 09:14:37;;;;;;;36.50;22.60;;;;;;;9.86;71.06;98859.64;105638;1283;112046;-69
2022/04/26 09:17:10;;;;;;;36.70;23.00;;;;;;;10.04;71.10;98859.73;105771;1283;97908;-66
2022/04/26 09:19:49;;;;;;;34.30;21.90;;;;;;;10.20;71.19;98863.58;105719;1281;107704;-68
2022/04/26 09:22:26;;;;;;;31.00;20.40;;;;;;;10.37;71.15;98859.33;105676;1281;96345;-68
2022/04/26 09:24:56;;;;;;;30.40;19.20;;;;;;;10.48;71.11;98861.33;105670;1283;98005;-69
2022/04/26 09:27:25;;;;;;;30.20;18.70;;;;;;;10.59;71.06;98864.09;105223;1283;112446;-67
2022/04/26 09:29:53;;;;;;;31.40;18.30;;;;;;;10.75;70.92;98863.42;105462;1282;97993;-69
2022/04/26 09:32:23;;;;;;;29.20;18.00;;;;;;;10.97;70.92;98859.04;105673;1283;108125;-68
2022/04/26 09:34:51;;;;;;;29.10;17.50;;;;;;;11.15;70.99;98854.61;105734;1283;97934;-69
2022/04/26 09:37:19;;;;;;;29.60;17.50;;;;;;;11.29;70.89;98856.40;105320;1282;97892;-68
2022/04/26 09:40:02;;;;;;;27.20;16.40;;;;;;;11.47;71.06;98853.91;105342;1282;111777;-69
2022/04/26 09:42:33;;;;;;;27.10;15.90;;;;;;;11.98;70.86;98849.28;105642;1282;97741;-69
2022/04/26 09:45:10;;;;;;;24.60;14.00;;;;;;;12.39;70.80;98846.98;105707;1283;106675;-69
2022/04/26 09:47:41;;;;;;;23.80;14.90;;;;;;;12.69;70.69;98847.01;105636;1283;97001;-68
2022/04/26 09:50:14;;;;;;;26.50;14.10;;;;;;;12.91;70.46;98846.20;105678;1283;97903;-70
2022/04/26 09:52:43;;;;;;;23.40;13.10;;;;;;;13.05;70.41;98853.87;105758;1283;111065;-67
2022/04/26 09:55:13;;;;;;;25.80;13.80;;;;;;;13.07;70.25;98851.25;105653;1282;97996;-69
2022/04/26 09:57:46;;;;;;;24.10;13.10;;;;;;;13.17;70.15;98851.84;105510;1282;107838;-71
2022/04/26 10:00:15;;;;;;;23.30;13.50;;;;;;;13.27;70.17;98849.73;105443;1283;98700;-70
2022/04/26 10:02:53;;;;;;;20.10;11.00;;;;;;;13.40;70.24;98845.40;105429;1282;95237;-69
2022/04/26 10:05:26;;;;;;;21.60;11.20;;;;;;;13.52;69.97;98846.09;105684;1282;111398;-68
2022/04/26 10:07:56;;;;;;;20.80;10.90;;;;;;;13.60;70.15;98849.02;105747;1283;98555;-67
2022/04/26 10:10:26;;;;;;;23.80;11.00;;;;;;;13.59;69.95;98853.04;105736;1283;107779;-71
2022/04/26 10:15:43;;;;;;;19.10;9.30;;;;;;;13.41;69.67;98854.06;105754;1283;95190;-68
2022/04/26 10:18:32;;;;;;;21.10;10.10;;;;;;;13.38;69.85;98856.75;105440;1282;112857;-68
2022/04/26 10:21:02;;;;;;;22.70;10.90;;;;;;;13.39;69.78;98855.11;105680;1283;95231;-68
2022/04/26 10:23:56;;;;;;;20.00;10.40;;;;;;;13.37;69.52;98863.03;105705;1283;108369;-70
2022/04/26 10:26:25;;;;;;;20.90;9.80;;;;;;;13.25;69.37;98872.52;105554;1282;97963;-70
2022/04/26 10:28:57;;;;;;;19.20;8.90;;;;;;;13.16;69.24;98872.16;105730;1282;97889;-68
2022/04/26 10:31:49;;;;;;;16.80;8.10;;;;;;;13.01;69.09;98872.04;105687;1282;111807;-69
2022/04/26 10:34:24;;;;;;;19.50;8.60;;;;;;;12.83;69.01;98879.79;105719;1282;97879;-68
2022/04/26 10:37:31;;;;;;;15.60;7.60;;;;;;;12.79;69.21;98877.80;105463;1282;108169;-69
2022/04/26 10:40:01;;;;;;;15.80;6.40;;;;;;;12.84;68.88;98876.51;105307;1281;98556;-70
2022/04/26 10:42:31;;;;;;;12.60;6.10;;;;;;;12.91;68.93;98870.71;105533;1282;97070;-69
2022/04/26 10:45:10;;;;;;;13.90;6.60;;;;;;;12.97;68.73;98874.89;105609;1282;111311;-69
2022/04/26 10:47:40;;;;;;;14.40;6.80;;;;;;;12.91;68.71;98875.00;105545;1282;97884;-68
2022/04/26 10:50:09;;;;;;;13.30;6.10;;;;;;;12.86;68.63;98877.91;105359;1284;109401;-68
2022/04/26 10:52:40;;;;;;;13.20;6.40;;;;;;;13.03;68.63;98874.89;105502;1282;97771;-68
2022/04/26 10:55:12;;;;;;;13.50;6.10;;;;;;;13.24;68.71;98874.67;105786;1282;98004;-67
2022/04/26 10:57:48;;;;;;;13.10;5.70;;;;;;;13.38;68.42;98873.89;105812;1281;112946;-69
2022/04/26 11:00:19;;;;;;;14.20;5.90;;;;;;;13.50;68.39;98874.30;105576;1282;97976;-69
2022/04/26 11:02:50;;;;;;;13.70;5.70;;;;;;;13.51;68.42;98872.61;105780;1283;108222;-68
2022/04/26 11:05:27;;;;;;;17.10;7.00;;;;;;;13.40;67.88;98873.54;105507;1282;97974;-68
2022/04/26 11:07:55;;;;;;;14.00;6.20;;;;;;;13.40;67.94;98871.91;105792;1282;98006;-68
2022/04/26 11:10:27;;;;;;;13.30;5.50;;;;;;;13.41;67.94;98875.59;105706;1283;112159;-68
2022/04/26 11:12:56;;;;;;;14.10;5.80;;;;;;;13.35;67.63;98875.87;105764;1283;97994;-69
2022/04/26 11:15:26;;;;;;;13.80;5.80;;;;;;;13.30;67.49;98879.52;105653;1283;108350;-70
2022/04/26 11:17:55;;;;;;;15.80;6.50;;;;;;;13.32;67.60;98881.48;106944;1282;95965;-68
2022/04/26 11:20:26;;;;;;;12.80;6.20;;;;;;;13.30;67.31;98884.19;105756;1282;96573;-69
2022/04/26 11:22:56;;;;;;;13.20;5.50;;;;;;;13.28;67.21;98888.43;105714;1283;111355;-68
2022/04/26 11:28:17;;;;;;;14.60;6.90;;;;;;;13.00;67.16;98889.27;105740;1282;108449;-69
2022/04/26 11:30:52;;;;;;;16.80;7.90;;;;;;;12.90;66.85;98891.15;105735;1283;96389;-67
2022/04/26 11:33:23;;;;;;;;;;;;;;;12.86;67.10;98895.17;105776;1282;97893;-68
2022/04/26 11:36:04;;;;;;;17.10;7.40;;;;;;;12.81;67.00;98891.86;105628;1281;112010;-69
2022/04/26 11:38:33;;;;;;;17.90;7.60;;;;;;;12.79;66.92;98895.95;105542;1282;97941;-70
2022/04/26 11:41:04;;;;;;;18.60;8.10;;;;;;;12.74;66.79;98894.62;105664;1282;108607;-71
2022/04/26 11:43:36;;;;;;;19.00;9.00;;;;;;;12.72;66.83;98891.73;105624;1281;96523;-69
2022/04/26 11:46:07;;;;;;;20.10;8.80;;;;;;;12.74;66.67;98894.28;105739;1283;96269;-69
2022/04/26 11:48:37;;;;;;;17.60;8.00;;;;;;;12.74;66.44;98897.11;105751;1282;111445;-71
2022/04/26 11:51:09;;;;;;;17.10;8.10;;;;;;;12.74;66.53;98894.08;105777;1282;97998;-69
2022/04/26 11:53:39;;;;;;;20.00;9.70;;;;;;;12.74;66.37;98891.61;105502;1282;108797;-68
2022/04/26 11:56:07;;;;;;;18.90;8.40;;;;;;;12.77;66.39;98892.59;105641;1282;97967;-70
2022/04/26 11:58:41;;;;;;;18.50;8.50;;;;;;;12.80;66.30;98891.60;105563;1282;96605;-69
2022/04/26 12:01:15;;;;;;;18.80;9.10;;;;;;;12.83;66.14;98891.57;105787;1282;110925;-71
2022/04/26 12:03:49;;;;;;;17.60;8.10;;;;;;;12.85;66.04;98894.40;105679;1283;97028;-68
2022/04/26 12:06:32;;;;;;;20.10;9.80;;;;;;;12.87;66.03;98894.45;105698;1283;108488;-68
2022/04/26 12:09:11;;;;;;;20.10;9.00;;;;;;;12.83;65.81;98897.20;105649;1283;97907;-69
2022/04/26 12:11:40;;;;;;;18.60;9.40;;;;;;;12.77;65.85;98898.44;105556;1282;97946;-68
2022/04/26 12:14:22;;;;;;;20.40;9.60;;;;;;;12.72;65.81;98897.45;105685;1281;112081;-70
2022/04/26 12:16:54;;;;;;;17.90;8.10;;;;;;;12.66;65.69;98897.95;105839;1283;97985;-70
2022/04/26 12:19:37;;;;;;;20.10;8.00;;;;;;;12.58;65.79;98898.64;105808;1280;107489;-68
2022/04/26 12:22:07;;;;;;;18.50;8.70;;;;;;;12.49;65.57;98895.61;105717;1283;97963;-70
2022/04/26 12:24:48;;;;;;;19.90;9.00;;;;;;;12.42;65.55;98898.88;105818;1282;97141;-70
2022/04/26 12:27:22;;;;;;;16.90;8.40;;;;;;;12.34;65.43;98896.00;105443;1283;111452;-69
2022/04/26 12:29:52;;;;;;;19.40;9.00;;;;;;;12.29;65.37;98895.86;105433;1282;99077;-71
2022/04/26 12:32:30;;;;;;;22.80;10.20;;;;;;;12.25;65.27;98894.38;105489;1281;109626;-69
2022/04/26 12:35:01;;;;;;;19.40;9.00;;;;;;;12.24;65.14;98898.70;105450;1282;97874;-69
2022/04/26 12:37:33;;;;;;;19.90;9.20;;;;;;;12.24;65.15;98897.48;105443;1283;97890;-69
2022/04/26 12:40:07;;;;;;;20.00;8.20;;;;;;;12.23;65.16;98897.05;105291;1281;111379;-69
2022/04/26 12:42:39;;;;;;;19.90;8.50;;;;;;;12.18;65.04;98895.15;105581;1283;97986;-68
2022/04/26 12:45:23;;;;;;;17.60;7.60;;;;;;;12.16;64.88;98896.36;105568;1282;107800;-69
2022/04/26 12:51:24;;;;;;;19.60;9.00;;;;;;;12.09;64.75;98894.14;105336;1283;98355;-69
2022/04/26 12:54:12;;;;;;;18.50;8.20;;;;;;;12.08;64.81;98896.88;105580;1282;112093;-69
2022/04/26 12:57:03;;;;;;;19.30;8.50;;;;;;;11.98;64.60;98899.59;105622;1282;97897;-69
2022/04/26 12:59:36;;;;;;;22.40;8.40;;;;;;;11.90;64.57;98898.96;105647;1283;107845;-70
2022/04/26 13:02:06;;;;;;;17.30;7.50;;;;;;;11.86;64.44;98900.31;105649;1282;97985;-66
2022/04/26 13:04:37;;;;;;;17.20;7.40;;;;;;;11.84;64.49;98895.69;105645;1282;97891;-68
2022/04/26 13:07:08;;;;;;;18.20;7.50;;;;;;;11.81;64.55;98898.48;105739;1283;112473;-67
2022/04/26 13:09:36;;;;;;;21.40;7.70;;;;;;;11.73;64.31;98895.86;105614;1283;98027;-68
2022/04/26 13:12:06;;;;;;;16.20;7.30;;;;;;;11.67;64.40;98898.14;105382;1283;110467;-69
2022/04/26 13:14:34;;;;;;;18.60;7.60;;;;;;;11.63;64.27;98898.23;105753;1281;97978;-68
2022/04/26 13:17:20;;;;;;;15.80;6.60;;;;;;;11.61;64.20;98897.88;105737;1282;97003;-67
2022/04/26 13:19:50;;;;;;;17.80;7.80;;;;;;;11.62;64.26;98897.79;105536;1283;111018;-67
2022/04/26 13:22:21;;;;;;;17.60;7.40;;;;;;;11.64;64.26;98899.27;105707;1282;97867;-68
2022/04/26 13:24:51;;;;;;;16.20;6.80;;;;;;;11.66;64.17;98897.51;105600;1282;107662;-69
2022/04/26 13:27:21;;;;;;;17.70;6.80;;;;;;;11.65;64.06;98902.17;105583;1281;96616;-69
2022/04/26 13:29:50;;;;;;;17.90;6.80;;;;;;;11.63;64.05;98903.61;105336;1281;97977;-69
2022/04/26 13:32:20;;;;;;;16.10;6.60;;;;;;;11.61;64.07;98902.34;105674;1282;111873;-72
2022/04/26 13:34:48;;;;;;;18.30;7.70;;;;;;;11.65;64.02;98901.16;105617;1282;96005;-70
2022/04/26 13:37:21;;;;;;;16.30;6.70;;;;;;;11.68;64.05;98898.96;105712;1283;108433;-69
2022/04/26 13:39:50;;;;;;;17.70;7.40;;;;;;;11.72;63.98;98898.96;105694;1282;98477;-69
2022/04/26 13:42:19;;;;;;;15.50;6.80;;;;;;;11.76;63.96;98900.80;105253;1283;97940;-70
2022/04/26 13:44:47;;;;;;;16.00;6.70;;;;;;;11.78;63.96;98903.34;105360;1282;111505;-70
2022/04/26 13:47:16;;;;;;;16.00;7.50;;;;;;;11.79;63.85;98906.44;107094;1282;96065;-68
2022/04/26 13:49:44;;;;;;;19.20;7.50;;;;;;;11.85;63.75;98907.39;107160;1282;106970;-69
2022/04/26 13:52:13;;;;;;;14.90;6.50;;;;;;;11.91;63.64;98905.64;107104;1282;96118;-70
2022/04/26 13:54:42;;;;;;;14.20;6.30;;;;;;;11.92;63.61;98906.29;107028;1282;96664;-69
2022/04/26 13:57:10;;;;;;;15.00;6.50;;;;;;;11.96;63.56;98909.73;106245;1282;111325;-69
2022/04/26 13:59:41;;;;;;;14.40;6.50;;;;;;;12.01;63.56;98909.09;105516;1282;97969;-70
2022/04/26 14:02:14;;;;;;;14.60;6.20;;;;;;;12.05;63.53;98908.59;105767;1280;107768;-69
2022/04/26 14:04:42;;;;;;;13.30;6.40;;;;;;;12.06;63.38;98911.54;105636;1282;98015;-70
2022/04/26 14:07:11;;;;;;;16.80;7.00;;;;;;;12.08;63.41;98915.54;105644;1282;97865;-70
2022/04/26 14:09:39;;;;;;;17.70;7.60;;;;;;;12.11;63.43;98914.18;105736;1282;111161;-68
2022/04/26 14:12:11;;;;;;;18.90;7.90;;;;;;;12.14;63.25;98914.17;105782;1282;97805;-69
2022/04/26 14:23:15;;;;;;;17.10;8.10;;;;;;;12.12;63.07;98916.82;105387;1282;112059;-69
2022/04/26 14:25:43;;;;;;;16.70;7.40;;;;;;;12.11;63.12;98914.37;105419;1282;97725;-69
2022/04/26 14:28:13;;;;;;;17.90;7.20;;;;;;;12.14;62.96;98922.16;105545;1282;109555;-68
2022/04/26 14:30:40;;;;;;;18.90;7.30;;;;;;;12.16;63.02;98925.00;105479;1282;97479;-69
2022/04/26 14:33:13;;;;;;;17.30;7.70;;;;;;;12.13;62.69;98926.55;105694;1283;95348;-69
2022/04/26 14:35:41;;;;;;;18.60;8.10;;;;;;;12.08;62.73;98921.74;105419;1282;112073;-68
2022/04/26 14:38:10;;;;;;;18.60;8.20;;;;;;;12.03;62.71;98921.98;105136;1283;98012;-68
2022/04/26 14:40:39;;;;;;;17.70;7.80;;;;;;;11.99;62.58;98925.97;106834;1282;108192;-67
2022/04/26 14:43:14;;;;;;;20.60;8.60;;;;;;;11.99;62.61;98923.15;106350;1282;95691;-66
2022/04/26 14:45:44;;;;;;;20.30;9.10;;;;;;;11.96;62.55;98925.53;105462;1282;97983;-69
2022/04/26 14:48:16;;;;;;;21.00;9.60;;;;;;;11.95;62.60;98927.20;105480;1283;111238;-69
2022/04/26 14:50:57;;;;;;;22.90;9.60;;;;;;;11.91;62.48;98930.47;105861;1282;97047;-69
2022/04/26 14:53:25;;;;;;;22.60;9.30;;;;;;;11.91;62.56;98934.23;105675;1283;107854;-68
2022/04/26 14:56:09;;;;;;;24.10;10.00;;;;;;;11.88;62.42;98934.61;105658;1282;97936;-68
2022/04/26 14:59:01;;;;;;;20.20;9.50;;;;;;;11.85;62.52;98935.64;105654;1283;97976;-68
2022/04/26 15:01:40;;;;;;;21.00;9.50;;;;;;;11.84;62.29;98933.06;105632;1282;111678;-69
2022/04/26 15:04:10;;;;;;;20.70;10.10;;;;;;;11.83;62.40;98930.94;105561;1282;97967;-69
2022/04/26 15:06:41;;;;;;;25.60;10.90;;;;;;;11.82;62.35;98931.41;105632;1282;108335;-68
2022/04/26 15:17:41;;;;;;;22.20;10.80;;;;;;;11.72;62.12;98930.03;105650;1283;95214;-70
2022/04/26 15:20:12;;;;;;;22.90;11.10;;;;;;;11.70;62.26;98931.61;105695;1283;109066;-70
2022/04/26 15:22:41;;;;;;;20.50;9.20;;;;;;;11.71;62.16;98930.52;105645;1283;97979;-70
2022/04/26 15:25:12;;;;;;;24.20;10.80;;;;;;;11.68;62.05;98927.57;105330;1283;98007;-69
2022/04/26 15:27:42;;;;;;;21.50;9.70;;;;;;;11.66;62.21;98928.05;105519;1282;112239;-69
2022/04/26 15:30:13;;;;;;;23.20;12.00;;;;;;;11.65;62.04;98926.88;105797;1283;97875;-68
2022/04/26 15:32:41;;;;;;;20.70;10.50;;;;;;;11.66;62.13;98923.63;105655;1281;107901;-69
2022/04/26 15:35:10;;;;;;;24.50;11.20;;;;;;;11.69;62.07;98925.19;105633;1283;97872;-69
2022/04/26 15:37:38;;;;;;;22.00;10.80;;;;;;;11.69;62.01;98926.91;105659;1282;97826;-69
2022/04/26 15:40:09;;;;;;;22.80;10.60;;;;;;;11.70;62.01;98927.58;105371;1282;112028;-70
2022/04/26 15:42:38;;;;;;;23.20;10.60;;;;;;;11.70;61.94;98929.50;105423;1282;320707;-70
2022/04/26 15:45:11;;;;;;;23.40;10.80;;;;;;;11.70;61.91;98931.30;105653;1282;107790;-69
2022/04/26 15:47:39;;;;;;;24.10;12.20;;;;;;;11.67;61.85;98932.73;105653;1283;95416;-70
2022/04/26 15:50:09;;;;;;;24.90;12.30;;;;;;;11.66;62.02;98928.27;105444;1282;95358;-69
2022/04/26 15:52:39;;;;;;;23.90;11.80;;;;;;;11.65;61.92;98922.84;105700;1283;111237;-69
2022/04/26 15:55:11;;;;;;;23.50;12.40;;;;;;;11.64;62.04;98920.93;105760;1282;97912;-67
2022/04/26 15:57:39;;;;;;;23.30;11.40;;;;;;;11.64;61.89;98921.65;105729;1282;108231;-69
2022/04/26 16:00:13;;;;;;;25.00;11.60;;;;;;;11.64;61.85;98923.56;105808;1281;97996;-69
2022/04/26 16:02:43;;;;;;;24.40;11.90;;;;;;;11.65;61.89;98928.14;105722;1283;97840;-69
2022/04/26 16:05:13;;;;;;;24.80;11.90;;;;;;;11.65;61.87;98928.30;105634;1283;111544;-68
2022/04/26 16:07:45;;;;;;;23.00;11.10;;;;;;;11.65;61.78;98930.59;105648;1282;95281;-71
2022/04/26 16:21:30;;;;;;;21.70;10.30;;;;;;;11.67;61.81;98939.87;105352;1284;96601;-71
2022/04/26 16:24:02;;;;;;;22.10;10.80;;;;;;;11.66;61.70;98938.16;105519;1282;107851;-68
2022/04/26 16:26:36;;;;;;;27.70;11.10;;;;;;;11.68;61.84;98942.66;105431;1282;97032;-69
2022/04/26 16:29:07;;;;;;;21.20;10.70;;;;;;;11.68;61.78;98943.36;105474;1282;96400;-67
2022/04/26 16:31:38;;;;;;;22.20;10.90;;;;;;;11.67;61.72;98947.66;105462;1282;111696;-69